sensor_id;sensor_type;location;lat;lon;timestamp;P1;durP1;ratioP1;P2;durP2;ratioP2
32292;SDS011;43233;48.608;8.838;2023-06-22T00:00:55;12.63;;;7.50;;
32292;SDS011;43233;48.608;8.838;2023-06-22T00:03:22;11.00;;;8.70;;
32292;SDS011;43233;48.608;8.838;2023-06-22T00:05:49;9.63;;;8.27;;
32292;SDS011;43233;48.608;8.838;2023-06-22T00:08:15;13.50;;;9.50;;
32292;SDS011;43233;48.608;8.838;2023-06-22T00:10:41;9.90;;;8.87;;
32292;SDS011;43233;48.608;8.838;2023-06-22T00:13:08;12.80;;;9.17;;
32292;SDS011;43233;48.608;8.838;2023-06-22T00:15:34;13.63;;;8.70;;
32292;SDS011;43233;48.608;8.838;2023-06-22T00:18:01;10.10;;;8.50;;
32292;SDS011;43233;48.608;8.838;2023-06-22T00:20:27;12.27;;;8.43;;
32292;SDS011;43233;48.608;8.838;2023-06-22T00:22:54;10.33;;;9.00;;
32292;SDS011;43233;48.608;8.838;2023-06-22T00:25:20;9.50;;;8.57;;
32292;SDS011;43233;48.608;8.838;2023-06-22T00:27:46;10.43;;;8.60;;
32292;SDS011;43233;48.608;8.838;2023-06-22T00:30:12;13.67;;;9.87;;
32292;SDS011;43233;48.608;8.838;2023-06-22T00:32:38;9.47;;;8.40;;
32292;SDS011;43233;48.608;8.838;2023-06-22T00:35:04;10.80;;;8.27;;
32292;SDS011;43233;48.608;8.838;2023-06-22T00:37:30;9.23;;;8.00;;
32292;SDS011;43233;48.608;8.838;2023-06-22T00:39:55;10.10;;;8.97;;
32292;SDS011;43233;48.608;8.838;2023-06-22T00:42:21;13.03;;;10.60;;
32292;SDS011;43233;48.608;8.838;2023-06-22T00:44:47;13.03;;;10.30;;
32292;SDS011;43233;48.608;8.838;2023-06-22T00:47:14;11.50;;;8.90;;
32292;SDS011;43233;48.608;8.838;2023-06-22T00:49:43;12.30;;;9.10;;
32292;SDS011;43233;48.608;8.838;2023-06-22T00:52:11;19.07;;;9.03;;
32292;SDS011;43233;48.608;8.838;2023-06-22T00:54:46;15.93;;;9.93;;
32292;SDS011;43233;48.608;8.838;2023-06-22T00:57:15;12.00;;;9.20;;
32292;SDS011;43233;48.608;8.838;2023-06-22T00:59:42;10.70;;;9.23;;
32292;SDS011;43233;48.608;8.838;2023-06-22T01:02:12;13.60;;;10.07;;
32292;SDS011;43233;48.608;8.838;2023-06-22T01:04:39;11.10;;;9.73;;
32292;SDS011;43233;48.608;8.838;2023-06-22T01:09:57;10.50;;;8.97;;
32292;SDS011;43233;48.608;8.838;2023-06-22T01:12:34;12.30;;;9.10;;
32292;SDS011;43233;48.608;8.838;2023-06-22T01:15:37;15.90;;;10.60;;
32292;SDS011;43233;48.608;8.838;2023-06-22T01:18:08;12.87;;;9.07;;
32292;SDS011;43233;48.608;8.838;2023-06-22T01:20:35;14.27;;;9.27;;
32292;SDS011;43233;48.608;8.838;2023-06-22T01:31:10;12.47;;;7.80;;
32292;SDS011;43233;48.608;8.838;2023-06-22T01:33:39;10.00;;;7.90;;
32292;SDS011;43233;48.608;8.838;2023-06-22T01:36:06;13.43;;;8.70;;
32292;SDS011;43233;48.608;8.838;2023-06-22T01:38:33;13.63;;;8.90;;
32292;SDS011;43233;48.608;8.838;2023-06-22T01:41:00;12.80;;;7.73;;
32292;SDS011;43233;48.608;8.838;2023-06-22T01:43:27;16.97;;;10.10;;
32292;SDS011;43233;48.608;8.838;2023-06-22T01:45:54;10.57;;;7.97;;
32292;SDS011;43233;48.608;8.838;2023-06-22T01:48:21;9.90;;;8.30;;
32292;SDS011;43233;48.608;8.838;2023-06-22T01:50:48;23.30;;;11.07;;
32292;SDS011;43233;48.608;8.838;2023-06-22T01:53:14;11.70;;;10.00;;
32292;SDS011;43233;48.608;8.838;2023-06-22T01:55:39;13.37;;;10.10;;
32292;SDS011;43233;48.608;8.838;2023-06-22T01:58:05;13.13;;;9.10;;
32292;SDS011;43233;48.608;8.838;2023-06-22T02:00:31;11.80;;;8.43;;
32292;SDS011;43233;48.608;8.838;2023-06-22T02:03:11;15.80;;;11.00;;
32292;SDS011;43233;48.608;8.838;2023-06-22T02:05:51;17.23;;;10.90;;
32292;SDS011;43233;48.608;8.838;2023-06-22T02:08:25;13.93;;;9.37;;
32292;SDS011;43233;48.608;8.838;2023-06-22T02:10:54;13.03;;;10.20;;
32292;SDS011;43233;48.608;8.838;2023-06-22T02:13:23;11.93;;;8.63;;
32292;SDS011;43233;48.608;8.838;2023-06-22T02:15:49;11.13;;;9.83;;
32292;SDS011;43233;48.608;8.838;2023-06-22T02:18:16;16.97;;;10.50;;
32292;SDS011;43233;48.608;8.838;2023-06-22T02:20:41;14.23;;;10.10;;
32292;SDS011;43233;48.608;8.838;2023-06-22T02:23:07;10.77;;;8.93;;
32292;SDS011;43233;48.608;8.838;2023-06-22T02:25:33;10.57;;;8.27;;
32292;SDS011;43233;48.608;8.838;2023-06-22T02:27:59;12.57;;;8.67;;
32292;SDS011;43233;48.608;8.838;2023-06-22T02:30:25;11.63;;;7.90;;
32292;SDS011;43233;48.608;8.838;2023-06-22T02:32:51;15.17;;;9.30;;
32292;SDS011;43233;48.608;8.838;2023-06-22T02:35:23;12.70;;;8.27;;
32292;SDS011;43233;48.608;8.838;2023-06-22T02:38:00;11.23;;;9.30;;
32292;SDS011;43233;48.608;8.838;2023-06-22T02:40:27;9.10;;;7.90;;
32292;SDS011;43233;48.608;8.838;2023-06-22T02:42:54;15.93;;;9.27;;
32292;SDS011;43233;48.608;8.838;2023-06-22T02:45:20;14.37;;;8.53;;
32292;SDS011;43233;48.608;8.838;2023-06-22T02:47:46;14.07;;;9.67;;
32292;SDS011;43233;48.608;8.838;2023-06-22T02:50:13;14.37;;;10.30;;
32292;SDS011;43233;48.608;8.838;2023-06-22T02:52:38;11.80;;;8.90;;
32292;SDS011;43233;48.608;8.838;2023-06-22T02:55:05;14.23;;;9.33;;
32292;SDS011;43233;48.608;8.838;2023-06-22T02:57:32;14.70;;;10.40;;
32292;SDS011;43233;48.608;8.838;2023-06-22T02:59:58;13.53;;;9.10;;
32292;SDS011;43233;48.608;8.838;2023-06-22T03:02:24;9.90;;;8.57;;
32292;SDS011;43233;48.608;8.838;2023-06-22T03:04:51;11.57;;;8.80;;
32292;SDS011;43233;48.608;8.838;2023-06-22T03:07:18;13.00;;;9.30;;
32292;SDS011;43233;48.608;8.838;2023-06-22T03:09:44;13.33;;;8.40;;
32292;SDS011;43233;48.608;8.838;2023-06-22T03:12:10;17.83;;;8.30;;
32292;SDS011;43233;48.608;8.838;2023-06-22T03:14:36;10.80;;;8.67;;
32292;SDS011;43233;48.608;8.838;2023-06-22T03:17:01;9.63;;;8.07;;
32292;SDS011;43233;48.608;8.838;2023-06-22T03:19:28;15.07;;;8.73;;
32292;SDS011;43233;48.608;8.838;2023-06-22T03:21:56;17.53;;;7.60;;
32292;SDS011;43233;48.608;8.838;2023-06-22T03:24:22;9.17;;;8.20;;
32292;SDS011;43233;48.608;8.838;2023-06-22T03:26:48;11.80;;;9.43;;
32292;SDS011;43233;48.608;8.838;2023-06-22T03:29:13;13.43;;;8.67;;
32292;SDS011;43233;48.608;8.838;2023-06-22T03:31:39;11.33;;;8.20;;
32292;SDS011;43233;48.608;8.838;2023-06-22T03:34:05;9.03;;;8.10;;
32292;SDS011;43233;48.608;8.838;2023-06-22T03:36:30;11.13;;;8.50;;
32292;SDS011;43233;48.608;8.838;2023-06-22T03:38:56;12.47;;;8.73;;
32292;SDS011;43233;48.608;8.838;2023-06-22T03:41:22;13.63;;;9.67;;
32292;SDS011;43233;48.608;8.838;2023-06-22T03:43:47;9.73;;;8.70;;
32292;SDS011;43233;48.608;8.838;2023-06-22T03:46:13;11.50;;;9.17;;
32292;SDS011;43233;48.608;8.838;2023-06-22T03:48:38;10.33;;;8.20;;
32292;SDS011;43233;48.608;8.838;2023-06-22T03:51:04;10.13;;;8.37;;
32292;SDS011;43233;48.608;8.838;2023-06-22T03:53:30;19.80;;;9.43;;
32292;SDS011;43233;48.608;8.838;2023-06-22T03:55:55;11.83;;;9.87;;
32292;SDS011;43233;48.608;8.838;2023-06-22T03:58:21;17.50;;;9.70;;
32292;SDS011;43233;48.608;8.838;2023-06-22T04:00:50;12.47;;;9.97;;
32292;SDS011;43233;48.608;8.838;2023-06-22T04:03:17;13.53;;;10.00;;
32292;SDS011;43233;48.608;8.838;2023-06-22T04:05:46;14.43;;;9.13;;
32292;SDS011;43233;48.608;8.838;2023-06-22T04:08:12;10.23;;;8.70;;
32292;SDS011;43233;48.608;8.838;2023-06-22T04:10:38;8.47;;;7.57;;
32292;SDS011;43233;48.608;8.838;2023-06-22T04:13:04;13.73;;;8.20;;
32292;SDS011;43233;48.608;8.838;2023-06-22T04:15:30;12.13;;;9.67;;
32292;SDS011;43233;48.608;8.838;2023-06-22T04:17:56;12.70;;;8.47;;
32292;SDS011;43233;48.608;8.838;2023-06-22T04:20:22;12.67;;;9.37;;
32292;SDS011;43233;48.608;8.838;2023-06-22T04:22:50;16.93;;;10.57;;
32292;SDS011;43233;48.608;8.838;2023-06-22T04:25:16;10.13;;;8.87;;
32292;SDS011;43233;48.608;8.838;2023-06-22T04:27:42;10.77;;;7.23;;
32292;SDS011;43233;48.608;8.838;2023-06-22T04:30:08;12.53;;;8.27;;
32292;SDS011;43233;48.608;8.838;2023-06-22T04:32:34;8.67;;;7.57;;
32292;SDS011;43233;48.608;8.838;2023-06-22T04:35:03;14.17;;;8.47;;
32292;SDS011;43233;48.608;8.838;2023-06-22T04:37:32;12.50;;;7.57;;
32292;SDS011;43233;48.608;8.838;2023-06-22T04:39:58;19.67;;;7.73;;
32292;SDS011;43233;48.608;8.838;2023-06-22T04:42:25;9.10;;;7.63;;
32292;SDS011;43233;48.608;8.838;2023-06-22T04:44:51;8.87;;;7.53;;
32292;SDS011;43233;48.608;8.838;2023-06-22T04:47:17;8.37;;;6.90;;
32292;SDS011;43233;48.608;8.838;2023-06-22T04:49:43;7.70;;;6.90;;
32292;SDS011;43233;48.608;8.838;2023-06-22T04:52:09;11.60;;;7.67;;
32292;SDS011;43233;48.608;8.838;2023-06-22T04:54:37;7.13;;;6.23;;
32292;SDS011;43233;48.608;8.838;2023-06-22T04:57:04;11.60;;;7.20;;
32292;SDS011;43233;48.608;8.838;2023-06-22T04:59:36;10.93;;;6.70;;
32292;SDS011;43233;48.608;8.838;2023-06-22T05:02:04;13.73;;;7.33;;
32292;SDS011;43233;48.608;8.838;2023-06-22T05:04:31;9.53;;;6.80;;
32292;SDS011;43233;48.608;8.838;2023-06-22T05:06:57;11.10;;;7.70;;
32292;SDS011;43233;48.608;8.838;2023-06-22T05:09:24;8.70;;;7.43;;
32292;SDS011;43233;48.608;8.838;2023-06-22T05:11:50;7.50;;;6.60;;
32292;SDS011;43233;48.608;8.838;2023-06-22T05:14:16;11.40;;;6.90;;
32292;SDS011;43233;48.608;8.838;2023-06-22T05:16:42;9.70;;;7.23;;
32292;SDS011;43233;48.608;8.838;2023-06-22T05:19:08;9.30;;;7.57;;
32292;SDS011;43233;48.608;8.838;2023-06-22T05:21:35;9.67;;;7.57;;
32292;SDS011;43233;48.608;8.838;2023-06-22T05:24:01;7.33;;;6.63;;
32292;SDS011;43233;48.608;8.838;2023-06-22T05:26:28;11.37;;;6.97;;
32292;SDS011;43233;48.608;8.838;2023-06-22T05:28:55;6.77;;;5.53;;
32292;SDS011;43233;48.608;8.838;2023-06-22T05:31:21;7.20;;;6.47;;
32292;SDS011;43233;48.608;8.838;2023-06-22T05:33:47;9.03;;;6.83;;
32292;SDS011;43233;48.608;8.838;2023-06-22T05:36:13;9.33;;;7.20;;
32292;SDS011;43233;48.608;8.838;2023-06-22T05:38:39;9.50;;;6.87;;
32292;SDS011;43233;48.608;8.838;2023-06-22T05:41:06;8.10;;;5.90;;
32292;SDS011;43233;48.608;8.838;2023-06-22T05:43:32;7.83;;;7.00;;
32292;SDS011;43233;48.608;8.838;2023-06-22T05:45:57;11.40;;;7.10;;
32292;SDS011;43233;48.608;8.838;2023-06-22T05:48:24;8.47;;;6.67;;
32292;SDS011;43233;48.608;8.838;2023-06-22T05:50:50;8.13;;;6.90;;
32292;SDS011;43233;48.608;8.838;2023-06-22T05:53:16;10.37;;;6.30;;
32292;SDS011;43233;48.608;8.838;2023-06-22T05:55:41;9.03;;;5.37;;
32292;SDS011;43233;48.608;8.838;2023-06-22T05:58:07;7.20;;;6.10;;
32292;SDS011;43233;48.608;8.838;2023-06-22T06:00:33;7.93;;;6.40;;
32292;SDS011;43233;48.608;8.838;2023-06-22T06:02:59;7.13;;;6.10;;
32292;SDS011;43233;48.608;8.838;2023-06-22T06:05:31;10.97;;;6.00;;
32292;SDS011;43233;48.608;8.838;2023-06-22T06:07:58;9.27;;;6.07;;
32292;SDS011;43233;48.608;8.838;2023-06-22T06:10:25;6.17;;;5.57;;
32292;SDS011;43233;48.608;8.838;2023-06-22T06:12:51;7.00;;;6.27;;
32292;SDS011;43233;48.608;8.838;2023-06-22T06:15:17;10.27;;;7.60;;
32292;SDS011;43233;48.608;8.838;2023-06-22T06:17:50;7.63;;;5.60;;
32292;SDS011;43233;48.608;8.838;2023-06-22T06:20:18;6.27;;;5.30;;
32292;SDS011;43233;48.608;8.838;2023-06-22T06:22:44;8.57;;;6.63;;
32292;SDS011;43233;48.608;8.838;2023-06-22T06:25:10;9.50;;;5.90;;
32292;SDS011;43233;48.608;8.838;2023-06-22T06:27:40;8.87;;;6.23;;
32292;SDS011;43233;48.608;8.838;2023-06-22T06:30:10;7.87;;;5.67;;
32292;SDS011;43233;48.608;8.838;2023-06-22T06:32:37;6.40;;;5.20;;
32292;SDS011;43233;48.608;8.838;2023-06-22T06:35:04;10.57;;;5.87;;
32292;SDS011;43233;48.608;8.838;2023-06-22T06:37:37;16.07;;;6.13;;
32292;SDS011;43233;48.608;8.838;2023-06-22T06:40:07;9.00;;;5.70;;
32292;SDS011;43233;48.608;8.838;2023-06-22T06:42:35;9.73;;;6.17;;
32292;SDS011;43233;48.608;8.838;2023-06-22T06:45:04;6.93;;;5.10;;
32292;SDS011;43233;48.608;8.838;2023-06-22T06:47:30;6.70;;;4.70;;
32292;SDS011;43233;48.608;8.838;2023-06-22T06:49:55;7.90;;;4.90;;
32292;SDS011;43233;48.608;8.838;2023-06-22T06:52:21;6.23;;;4.80;;
32292;SDS011;43233;48.608;8.838;2023-06-22T06:54:47;7.90;;;5.73;;
32292;SDS011;43233;48.608;8.838;2023-06-22T06:57:12;6.83;;;5.13;;
32292;SDS011;43233;48.608;8.838;2023-06-22T06:59:38;5.03;;;4.53;;
32292;SDS011;43233;48.608;8.838;2023-06-22T07:02:04;11.30;;;6.07;;
32292;SDS011;43233;48.608;8.838;2023-06-22T07:04:30;8.90;;;5.23;;
32292;SDS011;43233;48.608;8.838;2023-06-22T07:06:55;7.20;;;4.80;;
32292;SDS011;43233;48.608;8.838;2023-06-22T07:09:21;10.47;;;5.13;;
32292;SDS011;43233;48.608;8.838;2023-06-22T07:11:46;7.37;;;4.50;;
32292;SDS011;43233;48.608;8.838;2023-06-22T07:14:12;4.13;;;3.73;;
32292;SDS011;43233;48.608;8.838;2023-06-22T07:16:38;6.90;;;5.03;;
32292;SDS011;43233;48.608;8.838;2023-06-22T07:19:03;8.43;;;4.70;;
32292;SDS011;43233;48.608;8.838;2023-06-22T07:21:29;5.43;;;4.30;;
32292;SDS011;43233;48.608;8.838;2023-06-22T07:23:54;4.73;;;4.17;;
32292;SDS011;43233;48.608;8.838;2023-06-22T07:26:21;7.77;;;4.80;;
32292;SDS011;43233;48.608;8.838;2023-06-22T07:28:47;7.53;;;4.40;;
32292;SDS011;43233;48.608;8.838;2023-06-22T07:31:12;7.13;;;4.60;;
32292;SDS011;43233;48.608;8.838;2023-06-22T07:33:38;8.17;;;4.57;;
32292;SDS011;43233;48.608;8.838;2023-06-22T07:36:03;7.67;;;5.50;;
32292;SDS011;43233;48.608;8.838;2023-06-22T07:38:32;16.30;;;4.97;;
32292;SDS011;43233;48.608;8.838;2023-06-22T07:40:59;7.33;;;5.37;;
32292;SDS011;43233;48.608;8.838;2023-06-22T07:43:24;7.93;;;5.10;;
32292;SDS011;43233;48.608;8.838;2023-06-22T07:45:50;11.00;;;5.83;;
32292;SDS011;43233;48.608;8.838;2023-06-22T07:48:22;8.27;;;5.23;;
32292;SDS011;43233;48.608;8.838;2023-06-22T07:50:47;11.67;;;4.97;;
32292;SDS011;43233;48.608;8.838;2023-06-22T07:53:14;6.83;;;4.33;;
32292;SDS011;43233;48.608;8.838;2023-06-22T07:55:39;11.63;;;5.80;;
32292;SDS011;43233;48.608;8.838;2023-06-22T07:58:05;10.33;;;5.63;;
32292;SDS011;43233;48.608;8.838;2023-06-22T08:00:30;6.63;;;5.13;;
32292;SDS011;43233;48.608;8.838;2023-06-22T08:02:58;12.13;;;5.37;;
32292;SDS011;43233;48.608;8.838;2023-06-22T08:05:23;7.07;;;5.03;;
32292;SDS011;43233;48.608;8.838;2023-06-22T08:07:49;13.20;;;6.40;;
32292;SDS011;43233;48.608;8.838;2023-06-22T08:10:15;10.67;;;5.63;;
32292;SDS011;43233;48.608;8.838;2023-06-22T08:12:41;9.63;;;5.33;;
32292;SDS011;43233;48.608;8.838;2023-06-22T08:15:07;12.10;;;6.63;;
32292;SDS011;43233;48.608;8.838;2023-06-22T08:17:33;7.70;;;5.30;;
32292;SDS011;43233;48.608;8.838;2023-06-22T08:19:58;15.03;;;6.33;;
32292;SDS011;43233;48.608;8.838;2023-06-22T08:22:24;10.03;;;6.30;;
32292;SDS011;43233;48.608;8.838;2023-06-22T08:24:50;16.40;;;6.00;;
32292;SDS011;43233;48.608;8.838;2023-06-22T08:27:16;11.53;;;5.90;;
32292;SDS011;43233;48.608;8.838;2023-06-22T08:29:43;10.07;;;6.37;;
32292;SDS011;43233;48.608;8.838;2023-06-22T08:32:10;11.73;;;6.30;;
32292;SDS011;43233;48.608;8.838;2023-06-22T08:34:37;9.30;;;5.20;;
32292;SDS011;43233;48.608;8.838;2023-06-22T08:37:06;11.33;;;5.03;;
32292;SDS011;43233;48.608;8.838;2023-06-22T08:39:33;8.93;;;5.67;;
32292;SDS011;43233;48.608;8.838;2023-06-22T08:41:58;12.87;;;5.30;;
32292;SDS011;43233;48.608;8.838;2023-06-22T08:44:25;9.83;;;4.90;;
32292;SDS011;43233;48.608;8.838;2023-06-22T08:46:50;17.57;;;5.70;;
32292;SDS011;43233;48.608;8.838;2023-06-22T08:49:16;11.10;;;6.03;;
32292;SDS011;43233;48.608;8.838;2023-06-22T08:51:42;9.07;;;5.60;;
32292;SDS011;43233;48.608;8.838;2023-06-22T08:54:09;12.30;;;5.70;;
32292;SDS011;43233;48.608;8.838;2023-06-22T08:56:35;10.53;;;6.07;;
32292;SDS011;43233;48.608;8.838;2023-06-22T08:59:00;9.00;;;6.00;;
32292;SDS011;43233;48.608;8.838;2023-06-22T09:01:26;12.00;;;5.80;;
32292;SDS011;43233;48.608;8.838;2023-06-22T09:03:52;16.40;;;6.47;;
32292;SDS011;43233;48.608;8.838;2023-06-22T09:06:22;12.70;;;6.20;;
32292;SDS011;43233;48.608;8.838;2023-06-22T09:08:48;7.70;;;4.80;;
32292;SDS011;43233;48.608;8.838;2023-06-22T09:11:14;9.90;;;5.13;;
32292;SDS011;43233;48.608;8.838;2023-06-22T09:13:40;8.20;;;5.40;;
32292;SDS011;43233;48.608;8.838;2023-06-22T09:16:06;14.90;;;5.83;;
32292;SDS011;43233;48.608;8.838;2023-06-22T09:18:33;7.13;;;5.20;;
32292;SDS011;43233;48.608;8.838;2023-06-22T09:20:59;7.80;;;6.00;;
32292;SDS011;43233;48.608;8.838;2023-06-22T09:23:24;9.80;;;5.07;;
32292;SDS011;43233;48.608;8.838;2023-06-22T09:25:50;10.53;;;6.10;;
32292;SDS011;43233;48.608;8.838;2023-06-22T09:28:16;12.50;;;6.90;;
32292;SDS011;43233;48.608;8.838;2023-06-22T09:30:44;13.13;;;6.13;;
32292;SDS011;43233;48.608;8.838;2023-06-22T09:33:10;11.83;;;6.00;;
32292;SDS011;43233;48.608;8.838;2023-06-22T09:35:36;10.20;;;5.13;;
32292;SDS011;43233;48.608;8.838;2023-06-22T09:38:01;9.70;;;5.47;;
32292;SDS011;43233;48.608;8.838;2023-06-22T09:40:27;12.03;;;5.63;;
32292;SDS011;43233;48.608;8.838;2023-06-22T09:42:52;9.90;;;5.00;;
32292;SDS011;43233;48.608;8.838;2023-06-22T09:45:18;8.13;;;5.50;;
32292;SDS011;43233;48.608;8.838;2023-06-22T09:47:44;10.23;;;5.73;;
32292;SDS011;43233;48.608;8.838;2023-06-22T09:50:09;12.63;;;6.27;;
32292;SDS011;43233;48.608;8.838;2023-06-22T09:52:35;12.10;;;5.40;;
32292;SDS011;43233;48.608;8.838;2023-06-22T09:55:01;8.07;;;4.83;;
32292;SDS011;43233;48.608;8.838;2023-06-22T09:57:28;18.87;;;6.50;;
32292;SDS011;43233;48.608;8.838;2023-06-22T09:59:54;10.53;;;6.33;;
32292;SDS011;43233;48.608;8.838;2023-06-22T10:02:20;8.00;;;6.10;;
32292;SDS011;43233;48.608;8.838;2023-06-22T10:04:47;6.23;;;5.60;;
32292;SDS011;43233;48.608;8.838;2023-06-22T10:07:12;12.20;;;6.10;;
32292;SDS011;43233;48.608;8.838;2023-06-22T10:09:38;13.17;;;5.40;;
32292;SDS011;43233;48.608;8.838;2023-06-22T10:12:04;9.50;;;5.90;;
32292;SDS011;43233;48.608;8.838;2023-06-22T10:14:30;10.50;;;5.10;;
32292;SDS011;43233;48.608;8.838;2023-06-22T10:16:56;5.67;;;4.30;;
32292;SDS011;43233;48.608;8.838;2023-06-22T10:19:22;14.83;;;7.43;;
32292;SDS011;43233;48.608;8.838;2023-06-22T10:21:47;12.40;;;5.73;;
32292;SDS011;43233;48.608;8.838;2023-06-22T10:24:13;11.93;;;5.70;;
32292;SDS011;43233;48.608;8.838;2023-06-22T10:26:38;9.93;;;5.10;;
32292;SDS011;43233;48.608;8.838;2023-06-22T10:29:04;10.30;;;5.10;;
32292;SDS011;43233;48.608;8.838;2023-06-22T10:31:30;7.03;;;4.57;;
32292;SDS011;43233;48.608;8.838;2023-06-22T10:33:56;17.97;;;6.50;;
32292;SDS011;43233;48.608;8.838;2023-06-22T10:36:21;8.87;;;4.57;;
32292;SDS011;43233;48.608;8.838;2023-06-22T10:38:47;7.13;;;4.53;;
32292;SDS011;43233;48.608;8.838;2023-06-22T10:41:13;14.50;;;5.50;;
32292;SDS011;43233;48.608;8.838;2023-06-22T10:43:39;14.20;;;5.40;;
32292;SDS011;43233;48.608;8.838;2023-06-22T10:46:06;9.70;;;4.73;;
32292;SDS011;43233;48.608;8.838;2023-06-22T10:48:32;14.53;;;5.17;;
32292;SDS011;43233;48.608;8.838;2023-06-22T10:50:57;10.53;;;5.30;;
32292;SDS011;43233;48.608;8.838;2023-06-22T10:53:23;6.13;;;4.50;;
32292;SDS011;43233;48.608;8.838;2023-06-22T10:55:49;11.53;;;5.53;;
32292;SDS011;43233;48.608;8.838;2023-06-22T10:58:14;9.97;;;4.93;;
32292;SDS011;43233;48.608;8.838;2023-06-22T11:00:40;14.20;;;5.30;;
32292;SDS011;43233;48.608;8.838;2023-06-22T11:03:06;12.30;;;5.70;;
32292;SDS011;43233;48.608;8.838;2023-06-22T11:05:31;15.57;;;4.73;;
32292;SDS011;43233;48.608;8.838;2023-06-22T11:07:57;8.33;;;5.27;;
32292;SDS011;43233;48.608;8.838;2023-06-22T11:10:23;12.97;;;4.93;;
32292;SDS011;43233;48.608;8.838;2023-06-22T11:12:48;9.27;;;5.20;;
32292;SDS011;43233;48.608;8.838;2023-06-22T11:15:14;9.00;;;5.23;;
32292;SDS011;43233;48.608;8.838;2023-06-22T11:17:39;12.33;;;5.50;;
32292;SDS011;43233;48.608;8.838;2023-06-22T11:20:05;12.10;;;5.07;;
32292;SDS011;43233;48.608;8.838;2023-06-22T11:22:36;8.50;;;5.10;;
32292;SDS011;43233;48.608;8.838;2023-06-22T11:25:05;12.80;;;5.70;;
32292;SDS011;43233;48.608;8.838;2023-06-22T11:27:31;7.50;;;4.90;;
32292;SDS011;43233;48.608;8.838;2023-06-22T11:29:57;8.30;;;4.20;;
32292;SDS011;43233;48.608;8.838;2023-06-22T11:32:23;8.57;;;4.50;;
32292;SDS011;43233;48.608;8.838;2023-06-22T11:34:49;9.37;;;4.77;;
32292;SDS011;43233;48.608;8.838;2023-06-22T11:37:15;11.47;;;5.77;;
32292;SDS011;43233;48.608;8.838;2023-06-22T11:39:41;9.37;;;4.87;;
32292;SDS011;43233;48.608;8.838;2023-06-22T11:42:07;8.30;;;4.13;;
32292;SDS011;43233;48.608;8.838;2023-06-22T11:44:34;15.47;;;4.93;;
32292;SDS011;43233;48.608;8.838;2023-06-22T11:46:59;10.57;;;4.70;;
32292;SDS011;43233;48.608;8.838;2023-06-22T11:49:26;10.53;;;5.30;;
32292;SDS011;43233;48.608;8.838;2023-06-22T11:51:52;14.03;;;5.03;;
32292;SDS011;43233;48.608;8.838;2023-06-22T11:54:18;13.53;;;5.53;;
32292;SDS011;43233;48.608;8.838;2023-06-22T11:56:43;9.50;;;5.20;;
32292;SDS011;43233;48.608;8.838;2023-06-22T11:59:09;13.67;;;6.70;;
32292;SDS011;43233;48.608;8.838;2023-06-22T12:01:35;11.40;;;5.53;;
32292;SDS011;43233;48.608;8.838;2023-06-22T12:04:00;14.33;;;4.90;;
32292;SDS011;43233;48.608;8.838;2023-06-22T12:06:26;12.97;;;5.47;;
32292;SDS011;43233;48.608;8.838;2023-06-22T12:08:52;8.07;;;5.30;;
32292;SDS011;43233;48.608;8.838;2023-06-22T12:11:17;12.20;;;5.07;;
32292;SDS011;43233;48.608;8.838;2023-06-22T12:13:43;14.90;;;5.60;;
32292;SDS011;43233;48.608;8.838;2023-06-22T12:16:08;14.87;;;5.87;;
32292;SDS011;43233;48.608;8.838;2023-06-22T12:18:34;13.03;;;6.00;;
32292;SDS011;43233;48.608;8.838;2023-06-22T12:21:00;11.23;;;6.60;;
32292;SDS011;43233;48.608;8.838;2023-06-22T12:23:26;13.53;;;6.03;;
32292;SDS011;43233;48.608;8.838;2023-06-22T12:25:51;11.03;;;4.97;;
32292;SDS011;43233;48.608;8.838;2023-06-22T12:28:17;16.00;;;5.70;;
32292;SDS011;43233;48.608;8.838;2023-06-22T12:30:42;7.60;;;5.30;;
32292;SDS011;43233;48.608;8.838;2023-06-22T12:33:08;13.33;;;5.90;;
32292;SDS011;43233;48.608;8.838;2023-06-22T12:35:34;9.90;;;5.50;;
32292;SDS011;43233;48.608;8.838;2023-06-22T12:38:00;11.80;;;5.37;;
32292;SDS011;43233;48.608;8.838;2023-06-22T12:40:25;8.00;;;5.77;;
32292;SDS011;43233;48.608;8.838;2023-06-22T12:42:51;13.57;;;6.30;;
32292;SDS011;43233;48.608;8.838;2023-06-22T12:45:17;11.73;;;4.97;;
32292;SDS011;43233;48.608;8.838;2023-06-22T12:47:43;13.60;;;5.97;;
32292;SDS011;43233;48.608;8.838;2023-06-22T12:50:09;16.57;;;6.33;;
32292;SDS011;43233;48.608;8.838;2023-06-22T12:52:36;11.53;;;5.57;;
32292;SDS011;43233;48.608;8.838;2023-06-22T12:55:04;7.43;;;4.90;;
32292;SDS011;43233;48.608;8.838;2023-06-22T12:57:30;13.20;;;6.07;;
32292;SDS011;43233;48.608;8.838;2023-06-22T12:59:56;13.43;;;6.67;;
32292;SDS011;43233;48.608;8.838;2023-06-22T13:02:23;20.17;;;5.97;;
32292;SDS011;43233;48.608;8.838;2023-06-22T13:04:49;8.17;;;5.40;;
32292;SDS011;43233;48.608;8.838;2023-06-22T13:07:14;7.27;;;4.80;;
32292;SDS011;43233;48.608;8.838;2023-06-22T13:09:40;10.70;;;6.43;;
32292;SDS011;43233;48.608;8.838;2023-06-22T13:12:06;9.90;;;5.23;;
32292;SDS011;43233;48.608;8.838;2023-06-22T13:14:32;7.30;;;4.73;;
32292;SDS011;43233;48.608;8.838;2023-06-22T13:16:57;9.07;;;4.70;;
32292;SDS011;43233;48.608;8.838;2023-06-22T13:19:23;8.93;;;5.60;;
32292;SDS011;43233;48.608;8.838;2023-06-22T13:21:49;5.13;;;4.47;;
32292;SDS011;43233;48.608;8.838;2023-06-22T13:24:15;9.33;;;5.40;;
32292;SDS011;43233;48.608;8.838;2023-06-22T13:26:41;8.13;;;5.33;;
32292;SDS011;43233;48.608;8.838;2023-06-22T13:29:07;11.43;;;5.50;;
32292;SDS011;43233;48.608;8.838;2023-06-22T13:31:32;8.90;;;5.93;;
32292;SDS011;43233;48.608;8.838;2023-06-22T13:33:58;9.57;;;5.63;;
32292;SDS011;43233;48.608;8.838;2023-06-22T13:36:23;13.57;;;6.37;;
32292;SDS011;43233;48.608;8.838;2023-06-22T13:38:49;17.60;;;7.80;;
32292;SDS011;43233;48.608;8.838;2023-06-22T13:41:15;8.47;;;5.33;;
32292;SDS011;43233;48.608;8.838;2023-06-22T13:43:40;10.13;;;6.20;;
32292;SDS011;43233;48.608;8.838;2023-06-22T13:46:06;14.17;;;6.60;;
32292;SDS011;43233;48.608;8.838;2023-06-22T13:48:32;19.87;;;6.37;;
32292;SDS011;43233;48.608;8.838;2023-06-22T13:50:57;9.50;;;5.93;;
32292;SDS011;43233;48.608;8.838;2023-06-22T13:53:24;11.97;;;5.03;;
32292;SDS011;43233;48.608;8.838;2023-06-22T13:55:51;7.30;;;5.27;;
32292;SDS011;43233;48.608;8.838;2023-06-22T13:58:16;24.20;;;5.70;;
32292;SDS011;43233;48.608;8.838;2023-06-22T14:00:42;14.17;;;4.10;;
32292;SDS011;43233;48.608;8.838;2023-06-22T14:03:07;16.87;;;5.27;;
32292;SDS011;43233;48.608;8.838;2023-06-22T14:05:33;23.47;;;4.30;;
32292;SDS011;43233;48.608;8.838;2023-06-22T14:07:58;12.77;;;3.57;;
32292;SDS011;43233;48.608;8.838;2023-06-22T14:10:24;21.17;;;4.90;;
32292;SDS011;43233;48.608;8.838;2023-06-22T14:12:50;8.73;;;3.23;;
32292;SDS011;43233;48.608;8.838;2023-06-22T14:15:15;12.27;;;4.20;;
32292;SDS011;43233;48.608;8.838;2023-06-22T14:17:41;19.90;;;5.00;;
32292;SDS011;43233;48.608;8.838;2023-06-22T14:20:06;13.03;;;4.50;;
32292;SDS011;43233;48.608;8.838;2023-06-22T14:22:33;8.50;;;3.30;;
32292;SDS011;43233;48.608;8.838;2023-06-22T14:25:00;18.20;;;3.93;;
32292;SDS011;43233;48.608;8.838;2023-06-22T14:27:26;11.07;;;3.80;;
32292;SDS011;43233;48.608;8.838;2023-06-22T14:29:52;18.10;;;3.93;;
32292;SDS011;43233;48.608;8.838;2023-06-22T14:32:18;17.37;;;3.60;;
32292;SDS011;43233;48.608;8.838;2023-06-22T14:34:43;8.60;;;3.70;;
32292;SDS011;43233;48.608;8.838;2023-06-22T14:37:09;11.00;;;4.23;;
32292;SDS011;43233;48.608;8.838;2023-06-22T14:39:36;7.27;;;3.83;;
32292;SDS011;43233;48.608;8.838;2023-06-22T14:42:02;8.90;;;3.53;;
32292;SDS011;43233;48.608;8.838;2023-06-22T14:44:30;14.33;;;3.67;;